Ana Sayfa
METAR-TAF:

METAR-TAF

Havaalanları :

Katherine, Avustralya

Enlem: 14-26S, Boylam: 132-16E, yükseklik: 108 m

Güncel hava durumu gözlemi

Rapor saat 17:30 UTC de 40 dakika önce yapıldı.
Rüzgar kuzey/kuzeybatıdan 7 kt
Sıcaklık 30°C
Nem 52%
Basınç 1007 hPa
Görüş mesafesi 10 km veya daha fazla

METAR: YPTN 101730Z AUTO 34007KT 9999 // NCD 30/19 Q1007

Saat: 03:40 (18:10 UTC)

Tahmin

Rapor saat 17:20 UTC de 50 dakika önce yapıldı.
Ayın 10'si saat 18 UTC'den ayın 11'si saat 18 UTC'ye kadar geçerli Tahmin
Rüzgar kuzey/kuzeybatıdan 6 kt
Görüş mesafesi 10 km veya daha fazla
1500 m altında bulut yok ve kümülonimbus yok
Ayın 11'si saat 0200 UTC'den
Rüzgar doğu/güneydoğudan 8 kt
Görüş mesafesi 10 km veya daha fazla
1500 m altında bulut yok ve kümülonimbus yok

TAF: YPTN 101720Z 1018/1118 33006KT CAVOK FM110200 12008KT CAVOK

4.000'den fazla havaalanı için hava durumu gözlemleri ve tahminleri (METAR ve TAF raporları).

Kullanılabilir istasyonlar harita üzerinde sarı ve kırmızı noktalarla gösterilir.

İstasyonun adını görmek için fareyi noktanın üzerinde gezdirin.

Sonrasında hava gözlem ve tahminlerini görmek için tıklayın.

Haritayı değiştirmek için: yaklaştırmak için siyah artı işaretli yeşil düğmeye ve uzaklaştırmak için de eksi işaretli düğmeye hızla tıklayın; bitişik haritalar için yeşil okları kullanın.


METAR-TAF: